createdAt,value
2023-04-21T00:00:41.184Z,21.10
2023-04-21T00:03:10.490Z,21.00
2023-04-21T00:05:42.942Z,21.00
2023-04-21T00:08:12.265Z,21.00
2023-04-21T00:10:41.524Z,21.00
2023-04-21T00:13:10.763Z,21.00
2023-04-21T00:15:39.984Z,21.00
2023-04-21T00:18:09.993Z,21.00
2023-04-21T00:20:40.767Z,21.00
2023-04-21T00:23:11.343Z,21.00
2023-04-21T00:25:40.565Z,21.00
2023-04-21T00:28:09.765Z,21.00
2023-04-21T00:30:40.269Z,21.00
2023-04-21T00:33:09.527Z,21.00
2023-04-21T00:35:38.687Z,21.00
2023-04-21T00:38:09.310Z,20.90
2023-04-21T00:40:38.566Z,20.90
2023-04-21T00:43:08.391Z,20.90
2023-04-21T00:45:37.689Z,20.90
2023-04-21T00:48:07.256Z,20.90
2023-04-21T00:50:36.681Z,20.90
2023-04-21T00:53:11.132Z,20.90
2023-04-21T00:55:40.308Z,20.90
2023-04-21T00:58:11.241Z,20.90
2023-04-21T01:00:40.737Z,20.90
2023-04-21T01:03:10.197Z,20.90
2023-04-21T01:05:39.508Z,20.90
2023-04-21T01:08:10.929Z,20.90
2023-04-21T01:10:42.519Z,20.90
2023-04-21T01:13:11.825Z,20.90
2023-04-21T01:15:41.070Z,20.90
2023-04-21T01:18:10.294Z,20.90
2023-04-21T01:20:39.514Z,20.90
2023-04-21T01:23:10.082Z,20.90
2023-04-21T01:25:39.284Z,20.90
2023-04-21T01:28:08.472Z,20.90
2023-04-21T01:30:37.645Z,20.90
2023-04-21T01:33:06.960Z,20.90
2023-04-21T01:35:36.318Z,20.90
2023-04-21T01:38:05.526Z,20.80
2023-04-21T01:40:36.267Z,20.80
2023-04-21T01:43:06.141Z,20.80
2023-04-21T01:45:36.458Z,20.80
2023-04-21T01:48:07.082Z,20.80
2023-04-21T01:50:36.273Z,20.80
2023-04-21T01:53:05.466Z,20.80
2023-04-21T01:55:36.168Z,20.80
2023-04-21T01:58:05.640Z,20.80
2023-04-21T02:00:34.900Z,20.80
2023-04-21T02:03:04.265Z,20.80
2023-04-21T02:05:33.507Z,20.80
2023-04-21T02:08:02.817Z,20.80
2023-04-21T02:10:32.010Z,20.80
2023-04-21T02:13:02.673Z,20.80
2023-04-21T02:15:32.208Z,20.70
2023-04-21T02:18:01.558Z,20.70
2023-04-21T02:20:31.024Z,20.70
2023-04-21T02:23:00.213Z,20.70
2023-04-21T02:25:30.887Z,20.70
2023-04-21T02:28:01.567Z,20.70
2023-04-21T02:30:30.752Z,20.70
2023-04-21T02:32:59.893Z,20.70
2023-04-21T02:35:29.308Z,20.70
2023-04-21T02:37:59.839Z,20.70
2023-04-21T02:40:29.216Z,20.70
2023-04-21T02:42:58.492Z,20.70
2023-04-21T02:45:29.242Z,20.70
2023-04-21T02:48:00.080Z,20.70
2023-04-21T02:50:29.359Z,20.70
2023-04-21T02:52:58.641Z,20.70
2023-04-21T02:55:28.002Z,20.70
2023-04-21T02:57:57.241Z,20.70
2023-04-21T03:00:28.592Z,20.70
2023-04-21T03:02:57.944Z,20.70
2023-04-21T03:05:27.273Z,20.70
2023-04-21T03:07:56.422Z,20.70
2023-04-21T03:10:25.697Z,20.60
2023-04-21T03:12:57.943Z,20.60
2023-04-21T03:15:28.595Z,20.60
2023-04-21T03:17:57.845Z,20.60
2023-04-21T03:20:28.277Z,20.60
2023-04-21T03:22:57.629Z,20.60
2023-04-21T03:25:27.934Z,20.60
2023-04-21T03:27:57.310Z,20.60
2023-04-21T03:30:29.342Z,20.60
2023-04-21T03:32:58.969Z,20.60
2023-04-21T03:35:28.394Z,20.60
2023-04-21T03:38:03.246Z,20.60
2023-04-21T03:40:33.248Z,20.60
2023-04-21T03:43:03.959Z,20.60
2023-04-21T03:45:38.255Z,20.60
2023-04-21T03:48:08.023Z,20.60
2023-04-21T03:50:37.233Z,20.60
2023-04-21T03:53:06.605Z,20.60
2023-04-21T03:55:35.823Z,20.60
2023-04-21T03:58:05.009Z,20.60
2023-04-21T04:00:34.301Z,20.60
2023-04-21T04:03:04.980Z,20.60
2023-04-21T04:05:34.423Z,20.60
2023-04-21T04:08:03.602Z,20.60
2023-04-21T04:10:32.866Z,20.60
2023-04-21T04:13:02.462Z,20.60
2023-04-21T04:15:31.636Z,20.60
2023-04-21T04:18:01.983Z,20.50
2023-04-21T04:20:32.618Z,20.50
2023-04-21T04:23:01.790Z,20.50
2023-04-21T04:25:31.250Z,20.50
2023-04-21T04:28:00.933Z,20.50
2023-04-21T04:30:30.228Z,20.50
2023-04-21T04:32:59.410Z,20.50
2023-04-21T04:35:28.659Z,20.50
2023-04-21T04:37:59.298Z,20.50
2023-04-21T04:40:28.908Z,20.50
2023-04-21T04:42:58.512Z,20.50
2023-04-21T04:45:29.900Z,20.50
2023-04-21T04:47:59.276Z,20.50
2023-04-21T04:50:28.626Z,20.50
2023-04-21T04:52:59.261Z,20.50
2023-04-21T04:55:28.606Z,20.50
2023-04-21T04:57:57.751Z,20.50
2023-04-21T05:00:28.862Z,20.50
2023-04-21T05:02:58.297Z,20.50
2023-04-21T05:05:27.625Z,20.50
2023-04-21T05:07:58.830Z,20.50
2023-04-21T05:10:28.090Z,20.50
2023-04-21T05:12:57.349Z,20.60
2023-04-21T05:15:26.617Z,20.80
2023-04-21T05:17:55.951Z,20.90
2023-04-21T05:20:25.393Z,20.90
2023-04-21T05:22:54.609Z,21.00
2023-04-21T05:25:25.407Z,21.10
2023-04-21T05:27:54.683Z,21.20
2023-04-21T05:30:23.950Z,21.20
2023-04-21T05:32:53.396Z,21.20
2023-04-21T05:35:22.770Z,21.20
2023-04-21T05:37:52.018Z,21.20
2023-04-21T05:40:21.397Z,21.30
2023-04-21T05:42:52.109Z,21.40
2023-04-21T05:45:21.669Z,21.40
2023-04-21T05:47:51.066Z,21.40
2023-04-21T05:50:21.765Z,21.50
2023-04-21T05:52:52.054Z,21.40
2023-04-21T05:55:21.692Z,21.40
2023-04-21T05:57:52.727Z,21.40
2023-04-21T06:00:22.351Z,21.50
2023-04-21T06:02:52.301Z,21.60
2023-04-21T06:05:22.306Z,21.70
2023-04-21T06:07:51.843Z,21.70
2023-04-21T06:10:22.097Z,21.60
2023-04-21T06:12:52.888Z,21.60
2023-04-21T06:15:22.275Z,21.60
2023-04-21T06:17:55.560Z,21.60
2023-04-21T06:20:24.834Z,21.60
2023-04-21T06:22:54.704Z,21.60
2023-04-21T06:25:24.315Z,21.60
2023-04-21T06:27:54.859Z,21.60
2023-04-21T06:30:24.180Z,21.50
2023-04-21T06:32:53.522Z,21.60
2023-04-21T06:35:22.794Z,21.60
2023-04-21T06:37:52.204Z,21.60
2023-04-21T06:40:21.489Z,21.60
2023-04-21T06:42:50.829Z,21.60
2023-04-21T06:45:22.137Z,21.60
2023-04-21T06:47:51.361Z,21.60
2023-04-21T06:50:20.836Z,21.60
2023-04-21T06:52:50.067Z,21.60
2023-04-21T06:55:19.359Z,21.60
2023-04-21T06:57:48.599Z,21.60
2023-04-21T07:00:18.392Z,21.60
2023-04-21T07:02:49.310Z,21.60
2023-04-21T07:05:18.833Z,21.60
2023-04-21T07:07:48.008Z,21.60
2023-04-21T07:10:20.048Z,21.60
2023-04-21T07:12:49.538Z,21.60
2023-04-21T07:15:18.849Z,21.60
2023-04-21T07:17:49.541Z,21.60
2023-04-21T07:20:19.141Z,21.70
2023-04-21T07:22:48.345Z,21.70
2023-04-21T07:25:17.475Z,21.70
2023-04-21T07:27:46.719Z,21.70
2023-04-21T07:30:16.305Z,21.70
2023-04-21T07:32:46.499Z,21.70
2023-04-21T07:35:17.419Z,21.70
2023-04-21T07:37:47.055Z,21.70
2023-04-21T07:40:17.388Z,21.70
2023-04-21T07:42:46.702Z,21.70
2023-04-21T07:45:16.372Z,21.70
2023-04-21T07:47:46.652Z,21.70
2023-04-21T07:50:17.360Z,21.70
2023-04-21T07:52:48.184Z,21.70
2023-04-21T07:55:17.522Z,21.70
2023-04-21T07:57:46.663Z,21.60
2023-04-21T08:00:16.977Z,21.60
2023-04-21T08:02:46.453Z,21.70
2023-04-21T08:05:17.435Z,21.70
2023-04-21T08:07:46.634Z,21.70
2023-04-21T08:10:16.519Z,21.70
2023-04-21T08:12:45.763Z,21.70
2023-04-21T08:15:15.025Z,21.60
2023-04-21T08:17:44.528Z,21.70
2023-04-21T08:20:14.791Z,21.60
2023-04-21T08:22:47.906Z,21.60
2023-04-21T08:25:17.706Z,21.60
2023-04-21T08:27:46.875Z,21.60
2023-04-21T08:30:16.855Z,21.60
2023-04-21T08:32:46.425Z,21.60
2023-04-21T08:35:15.702Z,21.50
2023-04-21T08:37:47.076Z,21.50
2023-04-21T08:40:16.323Z,21.50
2023-04-21T08:42:46.253Z,21.50
2023-04-21T08:45:15.517Z,21.50
2023-04-21T08:47:45.009Z,21.50
2023-04-21T08:50:15.956Z,21.50
2023-04-21T08:52:46.639Z,21.50
2023-04-21T08:55:17.148Z,21.50
2023-04-21T08:57:46.397Z,21.50
2023-04-21T09:00:16.209Z,21.50
2023-04-21T09:03:01.385Z,21.50
2023-04-21T09:05:33.768Z,21.60
2023-04-21T09:08:11.999Z,21.60
2023-04-21T09:10:47.977Z,21.60
2023-04-21T09:13:18.032Z,21.60
2023-04-21T09:15:48.814Z,21.60
2023-04-21T09:18:19.497Z,21.60
2023-04-21T09:20:50.982Z,21.70
2023-04-21T09:23:22.690Z,21.70
2023-04-21T09:25:51.946Z,21.70
2023-04-21T09:28:21.823Z,21.70
2023-04-21T09:30:57.636Z,21.80
2023-04-21T09:33:30.968Z,21.80
2023-04-21T09:36:07.324Z,21.80
2023-04-21T09:38:37.970Z,21.80
2023-04-21T09:41:07.495Z,21.90
2023-04-21T09:43:37.111Z,21.90
2023-04-21T09:46:07.415Z,21.90
2023-04-21T09:48:38.096Z,22.00
2023-04-21T09:53:42.429Z,22.00
2023-04-21T09:56:13.932Z,22.00
2023-04-21T09:58:47.618Z,22.00
2023-04-21T10:01:17.348Z,22.00
2023-04-21T10:03:49.089Z,22.00
2023-04-21T10:06:18.659Z,22.00
2023-04-21T10:08:51.166Z,22.00
2023-04-21T10:11:20.670Z,22.00
2023-04-21T10:13:50.184Z,22.00
2023-04-21T10:16:21.630Z,22.10
2023-04-21T10:18:51.287Z,22.00
2023-04-21T10:21:22.383Z,22.00
2023-04-21T10:23:54.609Z,22.00
2023-04-21T10:26:25.975Z,22.00
2023-04-21T10:28:56.552Z,22.00
2023-04-21T10:31:33.842Z,22.10
2023-04-21T10:34:23.659Z,22.10
2023-04-21T10:37:16.582Z,22.10
2023-04-21T10:39:57.979Z,22.10
2023-04-21T10:42:37.354Z,22.10
2023-04-21T10:45:13.991Z,22.10
2023-04-21T10:47:46.548Z,22.10
2023-04-21T10:50:21.404Z,22.10
2023-04-21T10:52:56.727Z,22.10
2023-04-21T10:55:31.062Z,22.10
2023-04-21T10:58:04.363Z,22.10
2023-04-21T11:00:34.628Z,22.10
2023-04-21T11:03:05.861Z,22.10
2023-04-21T11:05:38.945Z,22.10
2023-04-21T11:08:11.496Z,22.10
2023-04-21T11:10:51.161Z,22.10
2023-04-21T11:13:23.933Z,22.00
2023-04-21T11:16:07.691Z,22.00
2023-04-21T11:18:41.559Z,22.00
2023-04-21T11:21:18.367Z,22.00
2023-04-21T11:23:55.148Z,22.00
2023-04-21T11:26:38.605Z,22.00
2023-04-21T11:29:10.219Z,22.00
2023-04-21T11:31:41.407Z,21.90
2023-04-21T11:34:11.087Z,21.90
2023-04-21T11:36:42.260Z,21.90
2023-04-21T11:39:12.883Z,21.90
2023-04-21T11:41:45.692Z,21.90
2023-04-21T11:44:16.251Z,21.90
2023-04-21T11:46:47.958Z,21.90
2023-04-21T11:49:18.622Z,21.90
2023-04-21T11:51:48.135Z,21.90
2023-04-21T11:54:22.445Z,21.90
2023-04-21T11:56:56.519Z,21.90
2023-04-21T11:59:27.054Z,21.90
2023-04-21T12:01:57.331Z,21.90
2023-04-21T12:04:27.725Z,21.90
2023-04-21T12:06:59.641Z,21.90
2023-04-21T12:09:30.432Z,22.00
2023-04-21T12:12:04.704Z,22.00
2023-04-21T12:14:36.013Z,22.00
2023-04-21T12:17:08.757Z,22.10
2023-04-21T12:19:40.721Z,22.10
2023-04-21T12:22:11.365Z,22.10
2023-04-21T12:24:41.635Z,22.10
2023-04-21T12:27:12.836Z,22.10
2023-04-21T12:29:42.886Z,22.10
2023-04-21T12:32:12.351Z,22.10
2023-04-21T12:34:41.985Z,22.20
2023-04-21T12:37:11.850Z,22.20
2023-04-21T12:39:41.115Z,22.20
2023-04-21T12:42:12.349Z,22.20
2023-04-21T12:44:41.810Z,22.10
2023-04-21T12:47:11.070Z,22.20
2023-04-21T12:49:40.431Z,22.20
2023-04-21T12:52:10.020Z,22.20
2023-04-21T12:54:39.521Z,22.20
2023-04-21T12:57:08.818Z,22.20
2023-04-21T12:59:39.585Z,22.20
2023-04-21T13:02:09.175Z,22.20
2023-04-21T13:07:08.587Z,22.20
2023-04-21T13:09:38.029Z,22.30
2023-04-21T13:12:07.562Z,22.30
2023-04-21T13:14:36.785Z,22.30
2023-04-21T13:17:07.535Z,22.20
2023-04-21T13:19:36.799Z,22.30
2023-04-21T13:22:06.129Z,22.30
2023-04-21T13:24:36.027Z,22.30
2023-04-21T13:27:05.432Z,22.30
2023-04-21T13:29:35.221Z,22.30
2023-04-21T13:32:05.725Z,22.30
2023-04-21T13:34:36.809Z,22.30
2023-04-21T13:37:06.557Z,22.40
2023-04-21T13:39:35.886Z,22.40
2023-04-21T13:42:05.312Z,22.40
2023-04-21T13:44:34.811Z,22.40
2023-04-21T13:47:05.510Z,22.40
2023-04-21T13:49:37.523Z,22.50
2023-04-21T13:52:06.881Z,22.50
2023-04-21T13:54:36.221Z,22.50
2023-04-21T13:57:05.810Z,22.40
2023-04-21T13:59:35.313Z,22.40
2023-04-21T14:02:04.898Z,22.40
2023-04-21T14:04:34.513Z,22.40
2023-04-21T14:07:06.792Z,22.40
2023-04-21T14:09:36.547Z,22.40
2023-04-21T14:12:05.950Z,22.50
2023-04-21T14:14:38.565Z,22.40
2023-04-21T14:17:08.989Z,22.40
2023-04-21T14:19:38.409Z,22.40
2023-04-21T14:22:09.294Z,22.40
2023-04-21T14:24:38.574Z,22.40
2023-04-21T14:27:07.837Z,22.40
2023-04-21T14:29:37.210Z,22.40
2023-04-21T14:32:06.513Z,22.40
2023-04-21T14:34:35.992Z,22.40
2023-04-21T14:37:05.268Z,22.50
2023-04-21T14:39:36.338Z,22.40
2023-04-21T14:42:06.271Z,22.50
2023-04-21T14:44:35.800Z,22.50
2023-04-21T14:47:09.706Z,22.40
2023-04-21T14:49:40.092Z,22.50
2023-04-21T14:52:09.583Z,22.50
2023-04-21T14:54:40.375Z,22.40
2023-04-21T14:57:19.049Z,22.50
2023-04-21T14:59:51.724Z,22.50
2023-04-21T15:02:22.358Z,22.50
2023-04-21T15:04:52.036Z,22.40
2023-04-21T15:07:24.450Z,22.40
2023-04-21T15:09:55.775Z,22.40
2023-04-21T15:12:25.143Z,22.40
2023-04-21T15:14:54.627Z,22.40
2023-04-21T15:17:24.095Z,22.40
2023-04-21T15:19:53.426Z,22.40
2023-04-21T15:22:22.944Z,22.40
2023-04-21T15:24:54.372Z,22.40
2023-04-21T15:27:25.321Z,22.40
2023-04-21T15:29:54.762Z,22.40
2023-04-21T15:32:24.378Z,22.40
2023-04-21T15:34:53.783Z,22.40
2023-04-21T15:37:25.551Z,22.40
2023-04-21T15:39:55.182Z,22.40
2023-04-21T15:42:26.143Z,22.30
2023-04-21T15:44:56.026Z,22.30
2023-04-21T15:47:25.399Z,22.20
2023-04-21T15:49:55.056Z,22.20
2023-04-21T15:52:24.512Z,22.20
2023-04-21T15:54:53.794Z,22.30
2023-04-21T15:57:24.420Z,22.30
2023-04-21T15:59:55.164Z,22.30
2023-04-21T16:02:24.780Z,22.30
2023-04-21T16:04:54.623Z,22.20
2023-04-21T16:07:24.307Z,22.30
2023-04-21T16:09:53.561Z,22.30
2023-04-21T16:12:23.907Z,22.30
2023-04-21T16:15:01.684Z,22.30
2023-04-21T16:17:38.932Z,22.40
2023-04-21T16:20:09.581Z,22.40
2023-04-21T16:22:39.125Z,22.40
2023-04-21T16:25:09.072Z,22.40
2023-04-21T16:27:38.401Z,22.30
2023-04-21T16:30:10.517Z,22.30
2023-04-21T16:32:40.147Z,22.30
2023-04-21T16:35:10.248Z,22.30
2023-04-21T16:37:42.921Z,22.30
2023-04-21T16:40:14.181Z,22.30
2023-04-21T16:42:43.709Z,22.20
2023-04-21T16:45:14.634Z,22.20
2023-04-21T16:47:44.019Z,22.20
2023-04-21T16:50:13.621Z,22.20
2023-04-21T16:52:43.025Z,22.20
2023-04-21T16:55:12.330Z,22.20
2023-04-21T16:57:41.801Z,22.10
2023-04-21T17:00:11.987Z,22.10
2023-04-21T17:02:43.083Z,22.10
2023-04-21T17:05:13.405Z,22.10
2023-04-21T17:07:43.492Z,22.10
2023-04-21T17:10:12.986Z,22.10
2023-04-21T17:12:42.759Z,22.10
2023-04-21T17:15:13.448Z,22.10
2023-04-21T17:17:47.224Z,22.10
2023-04-21T17:20:16.798Z,22.10
2023-04-21T17:22:46.465Z,22.00
2023-04-21T17:25:15.842Z,22.00
2023-04-21T17:27:45.248Z,22.00
2023-04-21T17:30:15.309Z,22.00
2023-04-21T17:32:46.132Z,22.00
2023-04-21T17:35:15.482Z,22.00
2023-04-21T17:37:44.812Z,22.00
2023-04-21T17:40:14.487Z,22.00
2023-04-21T17:42:43.821Z,22.00
2023-04-21T17:45:13.810Z,22.00
2023-04-21T17:47:43.411Z,22.00
2023-04-21T17:50:14.243Z,22.00
2023-04-21T17:52:43.953Z,22.00
2023-04-21T17:55:15.710Z,22.00
2023-04-21T17:57:45.094Z,22.10
2023-04-21T18:00:17.777Z,22.10
2023-04-21T18:02:47.266Z,22.10
2023-04-21T18:05:18.147Z,22.10
2023-04-21T18:07:47.826Z,22.10
2023-04-21T18:10:18.556Z,22.10
2023-04-21T18:12:48.109Z,22.20
2023-04-21T18:15:17.596Z,22.20
2023-04-21T18:17:47.066Z,22.20
2023-04-21T18:20:18.152Z,22.20
2023-04-21T18:22:47.754Z,22.20
2023-04-21T18:25:20.262Z,22.30
2023-04-21T18:27:53.821Z,22.30
2023-04-21T18:30:23.264Z,22.30
2023-04-21T18:32:52.592Z,22.30
2023-04-21T18:35:23.513Z,22.30
2023-04-21T18:37:52.727Z,22.30
2023-04-21T18:40:22.077Z,22.30
2023-04-21T18:42:51.494Z,22.30
2023-04-21T18:45:20.771Z,22.20
2023-04-21T18:47:50.077Z,22.20
2023-04-21T18:50:19.428Z,22.20
2023-04-21T18:52:50.036Z,22.20
2023-04-21T18:55:19.328Z,22.20
2023-04-21T18:57:48.539Z,22.20
2023-04-21T19:00:18.022Z,22.20
2023-04-21T19:02:49.053Z,22.20
2023-04-21T19:05:18.839Z,22.20
2023-04-21T19:07:49.628Z,22.20
2023-04-21T19:10:19.360Z,22.10
2023-04-21T19:12:48.755Z,22.20
2023-04-21T19:15:17.970Z,22.20
2023-04-21T19:17:47.211Z,22.20
2023-04-21T19:20:16.481Z,22.20
2023-04-21T19:22:46.020Z,22.20
2023-04-21T19:25:17.596Z,22.10
2023-04-21T19:27:48.615Z,22.10
2023-04-21T19:30:17.849Z,22.20
2023-04-21T19:32:47.144Z,22.20
2023-04-21T19:35:16.852Z,22.10
2023-04-21T19:37:46.299Z,22.10
2023-04-21T19:40:17.146Z,22.10
2023-04-21T19:42:46.407Z,22.10
2023-04-21T19:45:15.805Z,22.10
2023-04-21T19:47:45.024Z,22.10
2023-04-21T19:50:14.331Z,22.10
2023-04-21T19:52:43.691Z,22.10
2023-04-21T19:55:12.879Z,22.10
2023-04-21T19:57:43.518Z,22.10
2023-04-21T20:00:14.377Z,22.10
2023-04-21T20:02:44.424Z,22.10
2023-04-21T20:05:14.485Z,22.10
2023-04-21T20:07:43.761Z,22.10
2023-04-21T20:10:13.843Z,22.10
2023-04-21T20:12:44.590Z,22.10
2023-04-21T20:15:14.055Z,22.10
2023-04-21T20:17:43.260Z,22.00
2023-04-21T20:20:13.296Z,21.90
2023-04-21T20:22:42.770Z,21.90
2023-04-21T20:25:13.002Z,21.90
2023-04-21T20:27:44.440Z,21.90
2023-04-21T20:30:14.002Z,22.00
2023-04-21T20:32:43.389Z,22.00
2023-04-21T20:35:16.860Z,22.00
2023-04-21T20:37:46.264Z,22.10
2023-04-21T20:40:15.937Z,22.10
2023-04-21T20:42:47.421Z,22.10
2023-04-21T20:45:17.532Z,22.10
2023-04-21T20:47:46.751Z,22.10
2023-04-21T20:50:15.913Z,22.20
2023-04-21T20:52:45.137Z,22.20
2023-04-21T20:55:14.598Z,22.20
2023-04-21T20:57:45.263Z,22.20
2023-04-21T21:00:15.980Z,22.20
2023-04-21T21:02:45.557Z,22.20
2023-04-21T21:05:14.900Z,22.20
2023-04-21T21:07:44.119Z,22.20
2023-04-21T21:10:14.097Z,22.20
2023-04-21T21:12:45.764Z,22.30
2023-04-21T21:15:14.933Z,22.30
2023-04-21T21:17:44.327Z,22.30
2023-04-21T21:20:13.753Z,22.30
2023-04-21T21:22:43.657Z,22.30
2023-04-21T21:25:12.851Z,22.30
2023-04-21T21:27:42.085Z,22.40
2023-04-21T21:30:13.647Z,22.40
2023-04-21T21:32:43.180Z,22.40
2023-04-21T21:35:12.460Z,22.40
2023-04-21T21:37:41.771Z,22.40
2023-04-21T21:40:11.779Z,22.40
2023-04-21T21:42:41.114Z,22.40
2023-04-21T21:45:12.933Z,22.40
2023-04-21T21:47:45.478Z,22.40
2023-04-21T21:50:15.267Z,22.40
2023-04-21T21:52:44.547Z,22.40
2023-04-21T21:55:13.783Z,22.40
2023-04-21T21:57:43.653Z,22.40
2023-04-21T22:00:16.009Z,22.40
2023-04-21T22:02:46.001Z,22.40
2023-04-21T22:05:15.350Z,22.30
2023-04-21T22:07:44.679Z,22.40
2023-04-21T22:10:13.997Z,22.40
2023-04-21T22:12:43.310Z,22.50
2023-04-21T22:15:15.663Z,22.40
2023-04-21T22:17:45.476Z,22.40
2023-04-21T22:20:15.430Z,22.40
2023-04-21T22:22:44.828Z,22.40
2023-04-21T22:25:14.038Z,22.40
2023-04-21T22:27:43.196Z,22.40
2023-04-21T22:30:14.310Z,22.30
2023-04-21T22:32:43.676Z,22.20
2023-04-21T22:35:12.820Z,22.20
2023-04-21T22:37:42.057Z,22.20
2023-04-21T22:40:12.289Z,22.20
2023-04-21T22:42:41.614Z,22.10
2023-04-21T22:45:11.602Z,22.20
2023-04-21T22:47:42.286Z,22.20
2023-04-21T22:50:12.243Z,22.20
2023-04-21T22:52:41.653Z,22.20
2023-04-21T22:55:11.638Z,22.20
2023-04-21T22:57:40.891Z,22.20
2023-04-21T23:00:11.225Z,22.20
2023-04-21T23:02:42.213Z,22.10
2023-04-21T23:05:11.836Z,22.10
2023-04-21T23:07:40.970Z,22.10
2023-04-21T23:10:11.428Z,22.10
2023-04-21T23:12:40.806Z,22.10
2023-04-21T23:15:10.500Z,22.20
2023-04-21T23:17:39.710Z,22.20
2023-04-21T23:20:11.897Z,22.20
2023-04-21T23:22:41.301Z,22.20
2023-04-21T23:25:11.559Z,22.10
2023-04-21T23:27:40.800Z,22.10
2023-04-21T23:30:11.117Z,22.10
2023-04-21T23:32:40.399Z,22.10
2023-04-21T23:35:11.660Z,22.10
2023-04-21T23:37:41.222Z,22.10
2023-04-21T23:40:12.737Z,22.10
2023-04-21T23:42:42.102Z,22.10
2023-04-21T23:45:17.030Z,22.10
2023-04-21T23:47:46.852Z,22.10
2023-04-21T23:50:17.708Z,22.10
2023-04-21T23:52:47.058Z,22.10
2023-04-21T23:55:16.490Z,22.10
2023-04-21T23:57:47.091Z,22.00
